Panamint Springs, California
Current Conditions -  °F | °C
As of 5:56 PM on Thursday 20 Nov 2014 (Local Time) from KBIH Reporting Station
Few Clouds Few Clouds  
Wind Chill: 10°   Ceiling: Unl
Heat Index: 10°   Visibility: 10mi
Dew Point: -8°   Wind: 5mph
Humidity: 28%   Direction: 40°NE
Pressure: 29.91"   Gusts: NA
Location:  36.6126°N, 118.162°W
Report Text: KBIH 210156Z AUTO 04004KT 10SM FEW120 10/M08 A2991 RMK AO2 SLP126 T01001078
Loading
Personal Weather Stations






























Interactive Weather Map New forecast layout! Learn more

10-Day Weather Forecast

Advertisements
Track Severe Weather on mobile